Time;durP1;ratioP1;P1;durP2;ratioP2;P2;SDS_P1;SDS_P2;PMS_P1;PMS_P2;Temp;Humidity;BMP_temperature;BMP_pressure;BME280_temperature;BME280_humidity;BME280_pressure;Samples;Min_cycle;Max_cycle;Signal;HPM_P1;HPM_P2
2021/12/28 00:01:27;;;;;;;40.70;13.13;;;;;;;8.45;98.93;99411.06;5075821;28;20023;-71
2021/12/28 00:03:53;;;;;;;27.38;12.43;;;;;;;8.42;99.54;99404.53;5075285;28;20051;-71
2021/12/28 00:06:19;;;;;;;32.80;12.52;;;;;;;8.45;99.28;99404.13;5075576;28;20430;-71
2021/12/28 00:08:45;;;;;;;37.78;12.25;;;;;;;8.46;99.22;99405.72;5093923;28;20020;-73
2021/12/28 00:11:11;;;;;;;28.70;11.55;;;;;;;8.49;99.24;99414.81;5075729;28;20051;-72
2021/12/28 00:13:38;;;;;;;29.50;10.88;;;;;;;8.43;98.97;99423.34;5093951;28;20024;-72
2021/12/28 00:18:30;;;;;;;31.55;11.38;;;;;;;8.43;99.54;99411.28;5094523;28;20085;-72
2021/12/28 00:21:00;;;;;;;34.28;11.30;;;;;;;8.53;98.80;99415.97;5093576;28;20490;-71
2021/12/28 00:23:36;;;;;;;40.42;12.40;;;;;;;8.47;98.79;99407.28;5093647;28;20474;-71
2021/12/28 00:26:02;;;;;;;34.05;11.65;;;;;;;8.42;99.13;99409.69;5093828;28;20534;-71
2021/12/28 00:28:28;;;;;;;27.05;10.77;;;;;;;8.42;99.64;99412.25;5093591;28;20466;-71
2021/12/28 00:30:54;;;;;;;27.13;10.90;;;;;;;8.26;99.64;99397.28;5093565;28;20081;-72
2021/12/28 00:33:21;;;;;;;26.45;10.77;;;;;;;8.36;99.52;99413.84;5075444;28;20051;-72
2021/12/28 00:35:47;;;;;;;27.55;10.45;;;;;;;8.36;99.09;99411.28;5075493;28;20020;-72
2021/12/28 00:38:18;;;;;;;33.10;11.35;;;;;;;8.32;99.41;99410.13;5093555;28;20058;-72
2021/12/28 00:40:47;;;;;;;29.35;11.30;;;;;;;8.33;99.00;99405.75;5076129;28;20118;-72
2021/12/28 00:43:13;;;;;;;40.53;12.05;;;;;;;8.29;98.84;99404.59;5075387;28;20031;-72
2021/12/28 00:45:38;;;;;;;30.38;11.10;;;;;;;8.24;99.42;99404.41;5075362;28;20024;-72
2021/12/28 00:48:04;;;;;;;31.55;10.70;;;;;;;8.22;99.53;99401.25;5093476;28;20020;-71
2021/12/28 00:50:30;;;;;;;28.48;10.90;;;;;;;8.20;99.81;99403.22;5093614;28;20028;-73
2021/12/28 00:52:56;;;;;;;44.53;11.65;;;;;;;8.00;99.46;99357.81;5075624;28;20020;-71
2021/12/28 00:55:22;;;;;;;32.85;10.73;;;;;;;8.19;98.97;99391.38;5084343;28;20057;-71
2021/12/28 00:57:48;;;;;;;35.00;11.60;;;;;;;7.97;99.24;99365.94;5073439;28;20020;-71
2021/12/28 01:00:21;;;;;;;29.50;11.02;;;;;;;8.25;99.52;99398.25;5073751;28;20032;-72
2021/12/28 01:02:47;;;;;;;32.22;11.25;;;;;;;8.24;98.80;99399.25;5073886;28;20040;-76
2021/12/28 01:05:13;;;;;;;30.98;10.27;;;;;;;8.24;98.75;99391.53;5055486;28;20091;-71
2021/12/28 01:07:39;;;;;;;28.02;11.38;;;;;;;8.24;98.56;99400.06;5056240;28;20078;-71
2021/12/28 01:10:07;;;;;;;29.20;10.48;;;;;;;8.25;99.23;99385.38;5080704;28;20029;-75
2021/12/28 01:12:33;;;;;;;25.52;9.80;;;;;;;8.16;99.32;99392.56;5084518;28;20092;-75
2021/12/28 01:14:58;;;;;;;32.33;10.20;;;;;;;8.18;99.00;99382.06;5086403;28;20036;-74
2021/12/28 01:17:24;;;;;;;34.05;11.02;;;;;;;8.17;98.37;99381.28;5088812;28;20035;-74
2021/12/28 01:19:49;;;;;;;33.60;9.32;;;;;;;8.18;98.70;99380.28;5090089;28;20036;-74
2021/12/28 01:22:15;;;;;;;30.75;10.23;;;;;;;8.14;98.86;99384.25;5090347;28;20013;-76
2021/12/28 01:24:41;;;;;;;28.60;9.70;;;;;;;8.16;98.59;99384.06;5073695;28;20032;-71
2021/12/28 01:27:06;;;;;;;30.77;9.10;;;;;;;8.19;98.28;99378.50;5085871;28;20035;-72
2021/12/28 01:29:32;;;;;;;30.50;9.43;;;;;;;8.24;97.90;99379.47;5061453;28;20153;-71
2021/12/28 01:31:58;;;;;;;30.85;8.43;;;;;;;8.22;97.87;99381.44;5060656;28;20590;-71
2021/12/28 01:34:23;;;;;;;25.25;8.15;;;;;;;8.17;98.24;99388.19;5078556;28;20063;-72
2021/12/28 01:36:49;;;;;;;38.90;9.13;;;;;;;8.18;97.93;99379.50;5078061;28;20047;-72
2021/12/28 01:39:14;;;;;;;28.15;8.20;;;;;;;8.20;98.32;99390.34;5077778;28;20028;-72
2021/12/28 01:41:40;;;;;;;26.50;8.80;;;;;;;8.22;97.98;99389.16;5059339;28;20498;-72
2021/12/28 01:44:09;;;;;;;27.25;7.72;;;;;;;8.22;97.54;99380.66;5059323;28;20031;-72
2021/12/28 01:46:36;;;;;;;34.88;8.35;;;;;;;8.17;97.90;99370.19;5077656;28;20028;-72
2021/12/28 01:49:04;;;;;;;26.48;7.07;;;;;;;8.22;98.27;99378.09;5076747;28;20028;-72
2021/12/28 01:51:29;;;;;;;24.23;6.97;;;;;;;8.22;97.69;99386.59;5076479;28;20021;-72
2021/12/28 01:53:57;;;;;;;30.63;7.72;;;;;;;8.20;97.44;99378.31;5058422;28;20071;-74
2021/12/28 01:56:29;;;;;;;24.38;7.55;;;;;;;8.14;98.21;99376.53;5075973;28;20080;-71
2021/12/28 01:58:55;;;;;;;26.92;7.18;;;;;;;8.10;98.41;99367.66;5096565;28;20059;-71
2021/12/28 02:01:21;;;;;;;29.58;7.20;;;;;;;8.12;97.42;99373.38;5096413;28;20059;-72
2021/12/28 02:03:47;;;;;;;35.38;9.05;;;;;;;8.11;98.01;99389.81;5096297;28;20103;-71
2021/12/28 02:06:13;;;;;;;29.13;7.03;;;;;;;8.10;97.98;99383.09;5078105;28;20106;-71
2021/12/28 02:08:40;;;;;;;30.33;6.63;;;;;;;8.20;98.05;99373.16;5078188;28;20039;-70
2021/12/28 02:11:06;;;;;;;30.92;6.63;;;;;;;8.20;96.95;99372.34;5096202;28;20020;-71
2021/12/28 02:13:32;;;;;;;23.05;6.72;;;;;;;8.16;97.61;99377.13;5096146;28;20367;-71
2021/12/28 02:15:59;;;;;;;31.08;6.82;;;;;;;8.19;97.37;99365.63;5095914;28;20020;-70
2021/12/28 02:18:26;;;;;;;23.50;6.95;;;;;;;8.11;97.57;99361.50;5078608;28;20036;-71
2021/12/28 02:20:53;;;;;;;27.35;5.93;;;;;;;8.12;97.63;99356.16;5077639;28;20024;-71
2021/12/28 02:23:19;;;;;;;28.85;6.05;;;;;;;8.12;97.46;99366.44;5077763;28;20032;-71
2021/12/28 02:25:45;;;;;;;26.35;5.93;;;;;;;8.15;97.42;99354.97;5077635;28;20023;-71
2021/12/28 02:28:11;;;;;;;24.58;6.47;;;;;;;8.16;97.21;99360.91;5095394;28;20137;-70
2021/12/28 02:30:39;;;;;;;26.55;6.28;;;;;;;8.12;97.44;99361.31;5096323;28;20035;-71
2021/12/28 02:33:05;;;;;;;27.05;6.10;;;;;;;8.08;97.23;99349.03;5077526;28;20054;-71
2021/12/28 02:35:32;;;;;;;28.98;6.35;;;;;;;8.11;96.95;99361.50;5095620;28;20028;-71
2021/12/28 02:37:57;;;;;;;30.80;6.25;;;;;;;8.12;97.13;99353.59;5095661;28;20028;-71
2021/12/28 02:40:26;;;;;;;24.70;5.90;;;;;;;8.16;97.42;99356.53;5095514;28;20047;-71
2021/12/28 02:42:52;;;;;;;27.45;6.30;;;;;;;8.16;96.46;99348.81;5095420;28;20070;-71
2021/12/28 02:45:27;;;;;;;27.83;6.22;;;;;;;8.14;96.58;99341.31;5095293;28;20051;-71
2021/12/28 02:47:53;;;;;;;22.98;5.88;;;;;;;8.12;97.11;99334.78;5095077;28;20070;-71
2021/12/28 02:50:23;;;;;;;35.00;5.78;;;;;;;8.11;96.93;99344.31;5095225;28;20016;-71
2021/12/28 02:52:48;;;;;;;27.20;5.32;;;;;;;8.13;96.95;99347.44;5095373;28;20024;-71
2021/12/28 02:55:16;;;;;;;23.48;5.90;;;;;;;8.17;97.18;99339.31;5076776;28;20398;-71
2021/12/28 02:57:51;;;;;;;20.05;5.22;;;;;;;8.16;97.10;99353.19;5076887;28;20020;-71
2021/12/28 03:00:39;;;;;;;27.00;5.18;;;;;;;8.13;96.81;99326.84;5095225;28;20414;-71
2021/12/28 03:03:16;;;;;;;24.77;5.32;;;;;;;8.14;96.73;99338.75;5095043;28;20032;-72
2021/12/28 03:05:44;;;;;;;25.42;4.80;;;;;;;8.18;97.37;99330.59;5076758;28;20035;-72
2021/12/28 03:08:11;;;;;;;29.77;5.88;;;;;;;8.20;96.57;99331.16;5094765;28;20031;-72
2021/12/28 03:10:39;;;;;;;24.92;5.55;;;;;;;8.17;96.82;99322.09;5094796;28;20027;-72
2021/12/28 03:13:05;;;;;;;25.02;5.22;;;;;;;8.20;96.41;99321.69;5094769;28;20027;-72
2021/12/28 03:15:31;;;;;;;24.90;4.97;;;;;;;8.21;97.03;99327.63;5094799;28;20043;-70
2021/12/28 03:17:56;;;;;;;27.30;5.45;;;;;;;8.17;96.42;99323.88;5094666;28;20032;-71
2021/12/28 03:20:22;;;;;;;27.80;4.97;;;;;;;8.16;96.86;99324.88;5095233;28;20020;-71
2021/12/28 03:22:47;;;;;;;25.25;5.57;;;;;;;8.14;95.77;99292.41;5076481;28;20016;-71
2021/12/28 03:25:13;;;;;;;29.52;4.68;;;;;;;8.22;96.49;99309.38;5094432;28;20024;-71
2021/12/28 03:27:40;;;;;;;26.60;5.00;;;;;;;8.26;96.15;99312.34;5094543;28;20031;-71
2021/12/28 03:30:07;;;;;;;24.27;4.95;;;;;;;8.32;95.62;99296.06;5094432;28;20106;-71
2021/12/28 03:32:33;;;;;;;23.40;4.65;;;;;;;8.32;96.31;99307.16;5094494;28;20024;-71
2021/12/28 03:34:59;;;;;;;30.08;4.85;;;;;;;8.26;95.74;99289.19;5094363;28;20102;-71
2021/12/28 03:37:24;;;;;;;26.52;5.10;;;;;;;8.31;95.51;99287.53;5094366;28;20124;-71
2021/12/28 03:39:49;;;;;;;29.05;5.43;;;;;;;8.32;96.06;99289.13;5075335;28;20032;-71
2021/12/28 03:42:15;;;;;;;25.75;5.03;;;;;;;8.35;95.86;99287.94;5094203;28;20023;-70
2021/12/28 03:44:40;;;;;;;23.35;4.85;;;;;;;8.28;96.25;99274.31;5094230;28;20550;-71
2021/12/28 03:47:06;;;;;;;29.35;4.82;;;;;;;8.34;95.95;99281.19;5094687;28;20362;-70
2021/12/28 03:49:33;;;;;;;31.80;5.85;;;;;;;8.34;96.25;99276.03;5076083;28;20034;-71
2021/12/28 03:51:58;;;;;;;29.17;4.50;;;;;;;8.31;96.05;99272.09;5075902;28;20028;-72
2021/12/28 03:54:24;;;;;;;27.55;4.72;;;;;;;8.31;96.51;99279.81;5075629;28;20038;-71
2021/12/28 03:56:49;;;;;;;29.42;4.45;;;;;;;8.33;96.32;99266.75;5075962;28;20044;-71
2021/12/28 03:59:14;;;;;;;29.55;4.65;;;;;;;8.32;96.10;99268.53;5075855;28;20165;-71
2021/12/28 04:01:39;;;;;;;26.77;4.72;;;;;;;8.27;96.03;99278.66;5093936;28;20034;-72
2021/12/28 04:04:05;;;;;;;25.02;4.38;;;;;;;8.42;95.50;99257.03;5093949;28;20107;-71
2021/12/28 04:06:31;;;;;;;28.02;4.60;;;;;;;8.38;95.43;99246.34;5093781;28;20028;-70
2021/12/28 04:08:57;;;;;;;33.10;5.15;;;;;;;8.39;95.30;99258.22;5093881;28;20573;-70
2021/12/28 04:11:25;;;;;;;39.25;6.03;;;;;;;8.31;95.43;99251.50;5075698;28;20114;-70
2021/12/28 04:13:53;;;;;;;27.10;4.32;;;;;;;8.30;95.47;99256.88;5093757;28;20166;-71
2021/12/28 04:16:19;;;;;;;27.30;4.68;;;;;;;8.28;96.46;99256.28;5075705;28;20035;-70
2021/12/28 04:18:44;;;;;;;23.25;4.70;;;;;;;8.26;96.23;99250.59;5093949;28;20470;-71
2021/12/28 04:21:10;;;;;;;21.13;4.20;;;;;;;8.33;95.90;99256.47;5093680;28;20054;-71
2021/12/28 04:23:37;;;;;;;23.52;4.55;;;;;;;8.29;96.03;99242.44;5093645;28;20024;-70
2021/12/28 04:26:04;;;;;;;25.02;4.78;;;;;;;8.29;95.87;99252.75;5075458;28;20027;-69
2021/12/28 04:28:29;;;;;;;25.05;4.50;;;;;;;8.19;97.09;99240.31;5094073;28;20047;-69
2021/12/28 04:30:55;;;;;;;26.35;4.82;;;;;;;8.26;97.45;99242.88;5093486;28;20028;-69
2021/12/28 04:33:20;;;;;;;27.20;4.47;;;;;;;7.96;97.29;99204.84;5075404;28;20052;-70
2021/12/28 04:35:47;;;;;;;26.75;5.40;;;;;;;8.15;97.65;99226.31;5075306;28;20023;-70
2021/12/28 04:38:12;;;;;;;30.65;4.55;;;;;;;8.17;98.29;99241.53;5093465;28;20024;-70
2021/12/28 04:40:39;;;;;;;24.63;4.97;;;;;;;8.18;98.14;99238.75;5093483;28;20035;-71
2021/12/28 04:43:04;;;;;;;30.67;4.63;;;;;;;8.20;98.25;99238.53;5093454;28;20028;-71
2021/12/28 04:45:30;;;;;;;25.15;4.40;;;;;;;8.17;98.07;99233.81;5093295;28;20035;-71
2021/12/28 04:47:55;;;;;;;25.38;4.90;;;;;;;8.26;97.88;99230.00;5093376;28;20364;-71
2021/12/28 04:50:21;;;;;;;23.17;4.43;;;;;;;8.27;97.40;99229.78;5094101;28;20028;-71
2021/12/28 04:52:46;;;;;;;30.17;4.32;;;;;;;8.35;97.32;99236.47;5097931;28;20020;-71
2021/12/28 04:55:15;;;;;;;22.00;4.50;;;;;;;8.34;96.89;99234.88;5079121;28;20467;-71
2021/12/28 04:57:41;;;;;;;22.90;4.57;;;;;;;8.40;96.91;99222.97;5079224;28;20070;-71
2021/12/28 05:00:10;;;;;;;24.73;5.10;;;;;;;8.33;97.44;99217.84;5079191;28;20471;-71
2021/12/28 05:02:35;;;;;;;26.42;4.43;;;;;;;8.29;97.69;99217.50;5079277;28;20032;-71
2021/12/28 05:05:03;;;;;;;27.67;4.57;;;;;;;8.27;97.74;99219.47;5097261;28;20469;-71
2021/12/28 05:07:29;;;;;;;23.00;4.50;;;;;;;8.29;97.68;99209.00;5078860;28;20024;-71
2021/12/28 05:09:57;;;;;;;35.33;6.38;;;;;;;8.26;97.12;99209.41;5097205;28;20048;-71
2021/12/28 05:12:24;;;;;;;19.88;4.22;;;;;;;8.29;97.05;99203.84;5078966;28;20085;-71
2021/12/28 05:14:49;;;;;;;21.73;3.85;;;;;;;8.40;97.23;99210.09;5078920;28;20074;-71
2021/12/28 05:17:14;;;;;;;23.05;4.15;;;;;;;8.41;96.22;99191.09;5097063;28;20378;-71
2021/12/28 05:19:40;;;;;;;28.45;4.40;;;;;;;8.40;96.50;99192.91;5078759;28;20024;-71
2021/12/28 05:22:08;;;;;;;21.70;4.15;;;;;;;8.36;96.75;99187.31;5096950;28;20429;-71
2021/12/28 05:24:34;;;;;;;22.83;4.20;;;;;;;8.41;96.90;99194.47;5096930;28;20052;-71
2021/12/28 05:26:59;;;;;;;21.42;3.80;;;;;;;8.43;96.61;99197.63;5078610;28;20462;-71
2021/12/28 05:29:25;;;;;;;19.98;3.47;;;;;;;8.42;96.87;99201.16;5096820;28;20077;-71
2021/12/28 05:31:50;;;;;;;26.92;4.50;;;;;;;8.47;96.89;99187.69;5096827;28;20035;-71
2021/12/28 05:34:15;;;;;;;18.55;3.95;;;;;;;8.49;95.72;99185.69;5078583;28;20110;-71
2021/12/28 05:36:40;;;;;;;18.33;3.90;;;;;;;8.53;95.98;99184.25;5096607;28;20390;-71
2021/12/28 05:39:06;;;;;;;29.52;4.72;;;;;;;8.52;96.07;99185.25;5096891;28;20104;-72
2021/12/28 05:41:31;;;;;;;20.48;4.00;;;;;;;8.52;95.94;99191.19;5096587;28;20032;-71
2021/12/28 05:43:56;;;;;;;19.92;3.65;;;;;;;8.52;96.20;99178.31;5096541;28;20032;-72
2021/12/28 05:46:22;;;;;;;26.63;4.72;;;;;;;8.50;96.94;99180.31;5096634;28;20016;-71
2021/12/28 05:48:47;;;;;;;22.77;4.70;;;;;;;8.45;97.24;99179.38;5096388;28;20150;-71
2021/12/28 05:51:13;;;;;;;18.58;3.80;;;;;;;8.37;98.07;99172.66;5078185;28;20039;-72
2021/12/28 05:53:39;;;;;;;24.13;4.75;;;;;;;8.36;98.00;99171.88;5078129;28;20355;-71
2021/12/28 05:56:04;;;;;;;19.45;4.18;;;;;;;8.36;98.81;99173.69;5096122;28;20150;-71
2021/12/28 05:58:29;;;;;;;24.05;4.32;;;;;;;8.35;98.95;99175.47;5096199;28;20024;-71
2021/12/28 06:00:55;;;;;;;19.98;4.60;;;;;;;8.04;98.91;99127.41;5078109;28;20040;-71
2021/12/28 06:03:20;;;;;;;21.85;4.45;;;;;;;8.28;98.79;99166.22;5077477;28;20020;-71
2021/12/28 06:05:45;;;;;;;19.95;4.10;;;;;;;8.32;98.89;99159.66;5096054;28;20504;-71
2021/12/28 06:08:11;;;;;;;24.40;4.55;;;;;;;8.33;98.35;99162.00;5096089;28;20032;-71
2021/12/28 06:10:36;;;;;;;20.63;3.97;;;;;;;8.38;98.83;99151.09;5096010;28;20039;-72
2021/12/28 06:13:01;;;;;;;21.70;4.60;;;;;;;8.41;98.30;99149.91;5095935;28;20031;-71
2021/12/28 06:15:27;;;;;;;23.50;4.00;;;;;;;8.31;98.51;99142.63;5095930;28;20115;-70
2021/12/28 06:17:52;;;;;;;23.85;4.13;;;;;;;8.30;98.81;99147.00;5095952;28;20047;-71
2021/12/28 06:20:17;;;;;;;24.63;4.38;;;;;;;8.31;98.41;99142.63;5077567;28;20465;-71
2021/12/28 06:22:43;;;;;;;20.50;4.22;;;;;;;8.35;98.72;99142.00;5077661;28;20044;-71
2021/12/28 06:25:08;;;;;;;21.48;4.20;;;;;;;8.42;97.42;99139.41;5095804;28;20027;-71
2021/12/28 06:27:34;;;;;;;21.90;3.83;;;;;;;8.35;97.87;99138.66;5095902;28;20111;-72
2021/12/28 06:29:59;;;;;;;22.40;4.07;;;;;;;8.34;97.85;99144.78;5096102;28;20052;-71
2021/12/28 06:32:24;;;;;;;23.55;4.38;;;;;;;8.35;97.96;99136.06;5095616;28;20024;-69
2021/12/28 06:34:50;;;;;;;20.58;3.80;;;;;;;8.44;97.71;99139.19;5095556;28;20024;-70
2021/12/28 06:37:15;;;;;;;18.58;3.88;;;;;;;8.44;97.05;99134.81;5095756;28;20060;-70
2021/12/28 06:39:40;;;;;;;17.83;3.35;;;;;;;8.41;97.95;99127.53;5095484;28;20031;-71
2021/12/28 06:42:06;;;;;;;22.42;3.92;;;;;;;8.45;97.36;99131.25;5095358;28;20060;-71
2021/12/28 06:44:31;;;;;;;22.17;3.85;;;;;;;8.44;97.31;99123.75;5095355;28;20024;-71
2021/12/28 06:46:57;;;;;;;16.73;3.90;;;;;;;8.48;97.18;99120.50;5077085;28;20020;-72
2021/12/28 06:49:22;;;;;;;23.83;4.60;;;;;;;8.47;97.59;99125.91;5077162;28;20382;-72
2021/12/28 06:51:47;;;;;;;22.73;4.10;;;;;;;8.44;98.23;99116.81;5095763;28;20099;-71
2021/12/28 06:54:13;;;;;;;21.73;4.03;;;;;;;8.42;98.20;99107.72;5095080;28;20039;-70
2021/12/28 06:56:38;;;;;;;17.55;3.80;;;;;;;8.46;98.82;99108.84;5076836;28;20042;-70
2021/12/28 06:59:04;;;;;;;22.60;4.25;;;;;;;8.43;99.08;99115.25;5095039;28;20051;-71
2021/12/28 07:01:29;;;;;;;17.73;4.68;;;;;;;8.37;99.14;99105.75;5076954;28;20020;-71
2021/12/28 07:03:55;;;;;;;17.02;4.70;;;;;;;8.44;99.56;99101.38;5095030;28;20032;-71
2021/12/28 07:06:23;;;;;;;15.77;4.40;;;;;;;8.43;99.10;99102.38;5076775;28;20024;-70
2021/12/28 07:08:49;;;;;;;17.20;4.03;;;;;;;8.42;98.80;99111.06;5094925;28;20020;-71
2021/12/28 07:11:15;;;;;;;22.77;4.25;;;;;;;8.46;99.03;99106.28;5095403;28;20028;-71
2021/12/28 07:13:40;;;;;;;17.42;3.90;;;;;;;8.52;98.71;99097.72;5094697;28;20063;-72
2021/12/28 07:16:06;;;;;;;15.23;4.47;;;;;;;8.47;98.76;99095.78;5094718;28;20020;-72
2021/12/28 07:18:31;;;;;;;18.83;4.28;;;;;;;8.48;99.00;99089.63;5076518;28;20027;-72
2021/12/28 07:20:58;;;;;;;17.02;4.18;;;;;;;8.55;98.46;99105.03;5094685;28;20024;-72
2021/12/28 07:23:24;;;;;;;19.38;4.18;;;;;;;8.57;99.28;99101.25;5094526;28;20020;-72
2021/12/28 07:25:53;;;;;;;13.95;4.90;;;;;;;8.52;98.89;99098.50;5094511;28;20047;-71
2021/12/28 07:28:18;;;;;;;15.13;4.50;;;;;;;8.50;98.55;99110.81;5093318;28;20567;-71
2021/12/28 07:30:43;;;;;;;13.43;4.28;;;;;;;8.54;99.35;99109.38;5092874;28;20103;-70
2021/12/28 07:33:09;;;;;;;18.27;4.40;;;;;;;8.51;99.28;99101.28;5092340;28;20049;-72
2021/12/28 07:35:34;;;;;;;18.05;4.28;;;;;;;8.49;99.25;99093.78;5093139;28;20012;-71
2021/12/28 07:37:59;;;;;;;14.88;4.20;;;;;;;8.52;99.38;99090.78;5093820;28;20462;-73
2021/12/28 07:40:25;;;;;;;21.73;4.70;;;;;;;8.52;99.39;99093.34;5092501;28;20031;-73
2021/12/28 07:42:50;;;;;;;18.80;4.32;;;;;;;8.53;99.33;99091.56;5093044;28;20505;-72
2021/12/28 07:45:16;;;;;;;21.95;4.25;;;;;;;8.39;99.81;99078.03;5074661;28;20016;-70
2021/12/28 07:47:43;;;;;;;14.32;4.20;;;;;;;8.50;99.30;99102.28;5075867;28;20031;-71
2021/12/28 07:50:11;;;;;;;16.95;4.30;;;;;;;8.56;99.33;99093.72;5075845;28;20026;-71
2021/12/28 07:52:36;;;;;;;14.70;4.28;;;;;;;8.59;99.86;99093.28;5075891;28;20028;-72
2021/12/28 07:55:05;;;;;;;13.55;3.90;;;;;;;8.58;99.14;99097.66;5092962;28;20046;-70
2021/12/28 07:57:32;;;;;;;15.63;4.53;;;;;;;8.56;99.41;99086.00;5093946;28;20027;-71
2021/12/28 07:59:57;;;;;;;15.00;4.28;;;;;;;8.57;99.81;99087.56;5093875;28;20020;-71
2021/12/28 08:02:23;;;;;;;17.88;4.47;;;;;;;8.62;99.61;99081.78;5075792;28;20466;-71
2021/12/28 08:04:48;;;;;;;12.48;3.92;;;;;;;8.63;99.71;99081.56;5093297;28;20081;-70
2021/12/28 08:07:13;;;;;;;13.32;4.20;;;;;;;8.61;99.89;99087.94;5093770;28;20021;-71
2021/12/28 08:09:39;;;;;;;15.60;4.20;;;;;;;8.63;99.32;99076.41;5075710;28;20539;-71
2021/12/28 08:12:04;;;;;;;14.88;3.78;;;;;;;8.61;99.29;99072.47;5076061;28;20035;-71
2021/12/28 08:14:30;;;;;;;12.10;3.95;;;;;;;8.65;99.88;99076.19;5093727;28;20055;-70
2021/12/28 08:16:55;;;;;;;13.60;4.05;;;;;;;8.61;99.38;99080.22;5075561;28;20020;-71
2021/12/28 08:19:20;;;;;;;12.23;3.75;;;;;;;8.64;99.97;99077.19;5093731;28;20379;-71
2021/12/28 08:21:46;;;;;;;7.95;3.35;;;;;;;8.68;99.16;99078.34;5094245;28;20039;-71
2021/12/28 08:24:11;;;;;;;12.38;4.18;;;;;;;8.70;99.78;99082.25;5093207;28;20539;-71
2021/12/28 08:26:37;;;;;;;15.25;4.20;;;;;;;8.66;99.41;99065.69;5074162;28;20433;-71
2021/12/28 08:29:02;;;;;;;14.05;3.90;;;;;;;8.57;99.55;99054.88;5075361;28;20103;-73
2021/12/28 08:31:28;;;;;;;9.40;4.00;;;;;;;8.67;99.78;99066.47;5098167;28;20086;-73
2021/12/28 08:33:54;;;;;;;13.25;4.32;;;;;;;8.71;99.78;99055.50;5080597;28;20032;-70
2021/12/28 08:36:19;;;;;;;11.02;4.22;;;;;;;8.73;99.38;99052.72;5075684;28;20027;-71
2021/12/28 08:38:45;;;;;;;10.50;4.25;;;;;;;8.73;99.29;99050.16;5093617;28;20401;-71
2021/12/28 08:41:11;;;;;;;11.07;4.40;;;;;;;8.74;100.00;99043.97;5075396;28;20022;-71
2021/12/28 08:43:37;;;;;;;8.85;3.85;;;;;;;8.74;99.35;99041.41;5075422;28;20505;-71
2021/12/28 08:46:03;;;;;;;9.35;4.25;;;;;;;8.77;99.35;99043.53;5093277;28;20382;-71
2021/12/28 08:48:28;;;;;;;16.75;4.60;;;;;;;8.80;99.22;99043.09;5094090;28;20031;-71
2021/12/28 08:50:54;;;;;;;10.23;3.80;;;;;;;8.83;99.58;99034.94;5092587;28;20024;-71
2021/12/28 08:53:19;;;;;;;9.63;4.05;;;;;;;8.84;99.51;99040.91;5093090;28;20031;-71
2021/12/28 08:55:44;;;;;;;11.27;4.30;;;;;;;8.85;99.58;99034.75;5074990;28;20040;-71
2021/12/28 08:58:10;;;;;;;8.70;3.88;;;;;;;8.90;99.55;99037.47;5093350;28;20076;-71
2021/12/28 09:00:36;;;;;;;8.75;4.15;;;;;;;8.87;99.31;99038.69;5093527;28;20103;-71
2021/12/28 09:03:02;;;;;;;7.07;3.60;;;;;;;8.83;99.75;99040.09;5093158;28;20047;-70
2021/12/28 09:05:28;;;;;;;7.47;3.92;;;;;;;8.89;99.53;99041.81;5093614;28;20024;-70
2021/12/28 09:07:55;;;;;;;7.57;4.30;;;;;;;8.87;100.00;99028.38;5075070;28;20028;-71
2021/12/28 09:10:25;;;;;;;10.10;4.38;;;;;;;8.92;99.46;99023.34;5074901;28;20079;-71
2021/12/28 09:12:50;;;;;;;9.77;4.72;;;;;;;8.92;99.43;99023.34;5093184;28;20024;-72
2021/12/28 09:15:15;;;;;;;8.52;3.90;;;;;;;9.02;99.52;99013.28;5093311;28;20494;-72
2021/12/28 09:17:41;;;;;;;6.05;3.80;;;;;;;8.96;99.30;99024.47;5093717;28;20115;-73
2021/12/28 09:20:11;;;;;;;7.60;4.72;;;;;;;8.98;99.50;99019.91;5093201;28;20024;-71
2021/12/28 09:22:37;;;;;;;6.82;4.40;;;;;;;8.80;99.72;98971.00;5093138;28;20055;-71
2021/12/28 09:25:03;;;;;;;6.80;3.90;;;;;;;9.06;99.14;99000.75;5093515;28;20024;-72
2021/12/28 09:27:28;;;;;;;7.82;4.50;;;;;;;8.99;99.92;99006.00;5093125;28;20501;-72
2021/12/28 09:29:53;;;;;;;9.32;4.30;;;;;;;8.87;99.79;98971.69;5093564;28;20021;-71
2021/12/28 09:32:20;;;;;;;7.55;4.38;;;;;;;9.06;99.72;98998.19;5092458;28;20356;-71
2021/12/28 09:34:48;;;;;;;7.57;3.95;;;;;;;8.99;100.00;98992.34;5074504;28;20024;-72
2021/12/28 09:37:13;;;;;;;7.93;4.45;;;;;;;8.95;100.00;98996.38;5093468;28;20024;-72
2021/12/28 09:39:39;;;;;;;6.55;4.15;;;;;;;8.99;100.00;98997.50;5096667;28;20474;-71
2021/12/28 09:42:04;;;;;;;7.28;3.97;;;;;;;8.95;99.95;98981.69;5078390;28;20497;-71
2021/12/28 09:44:31;;;;;;;8.00;4.35;;;;;;;9.02;100.00;98984.94;5096475;28;20038;-72
2021/12/28 09:46:58;;;;;;;6.07;4.10;;;;;;;9.12;99.42;98986.19;5096322;28;20048;-70
2021/12/28 09:49:25;;;;;;;7.65;4.28;;;;;;;8.84;99.95;98948.97;5097775;28;20074;-75
2021/12/28 09:51:51;;;;;;;8.50;4.57;;;;;;;9.15;99.32;98984.00;5077146;28;20024;-72
2021/12/28 09:54:16;;;;;;;9.25;5.07;;;;;;;9.11;99.32;98979.50;5076748;28;20066;-71
2021/12/28 09:56:42;;;;;;;7.35;4.95;;;;;;;9.15;99.51;98978.03;5074950;28;20024;-72
2021/12/28 09:59:09;;;;;;;9.68;5.40;;;;;;;9.17;99.57;98971.66;5073572;28;20025;-72
2021/12/28 10:01:34;;;;;;;7.53;5.63;;;;;;;9.19;99.28;98974.81;5093670;28;20071;-70
2021/12/28 10:04:01;;;;;;;10.95;5.63;;;;;;;9.16;99.36;98964.16;5076061;28;20068;-71
2021/12/28 10:06:28;;;;;;;12.18;6.35;;;;;;;9.20;99.18;98954.97;5095352;28;20024;-71
2021/12/28 10:09:22;;;;;;;11.55;5.93;;;;;;;9.29;99.18;98958.00;5095953;28;20016;-71
2021/12/28 10:11:53;;;;;;;11.05;7.03;;;;;;;9.35;98.90;98949.38;5060816;28;20032;-72
2021/12/28 10:14:29;;;;;;;10.02;6.47;;;;;;;9.32;98.69;98948.06;5077740;28;20036;-72
2021/12/28 10:16:58;;;;;;;9.45;6.53;;;;;;;9.47;98.27;98940.66;5096814;28;20028;-71
2021/12/28 10:19:34;;;;;;;10.90;7.00;;;;;;;9.54;98.09;98943.09;5076658;28;20019;-71
2021/12/28 10:22:27;;;;;;;9.20;6.55;;;;;;;9.46;98.00;98939.06;5077538;28;20076;-71
2021/12/28 10:25:17;;;;;;;12.38;7.72;;;;;;;9.44;98.72;98928.22;5078041;28;20022;-71
2021/12/28 10:27:46;;;;;;;11.07;7.45;;;;;;;9.41;99.17;98928.66;5087580;28;20040;-73
2021/12/28 10:30:24;;;;;;;11.82;7.63;;;;;;;9.40;99.03;98913.41;5077522;28;20064;-70
2021/12/28 10:32:52;;;;;;;10.85;7.20;;;;;;;9.48;98.66;98925.97;5094091;28;20020;-71
2021/12/28 10:35:24;;;;;;;11.18;7.10;;;;;;;9.48;98.62;98910.50;5094953;28;20115;-71
2021/12/28 10:37:59;;;;;;;11.93;7.70;;;;;;;9.49;98.88;98910.28;5095550;28;20023;-71
2021/12/28 10:40:30;;;;;;;10.35;6.70;;;;;;;9.55;98.39;98912.94;5077339;28;20274;-72
2021/12/28 10:42:57;;;;;;;11.05;7.43;;;;;;;9.57;98.38;98913.50;5095223;28;20024;-70
2021/12/28 10:45:31;;;;;;;10.88;7.15;;;;;;;9.60;98.32;98893.19;5074891;28;20051;-70
2021/12/28 10:47:56;;;;;;;10.35;7.25;;;;;;;9.57;98.71;98892.88;5093661;28;20098;-71
2021/12/28 10:50:34;;;;;;;10.18;6.90;;;;;;;9.56;98.87;98889.53;5094105;28;20103;-71
2021/12/28 10:53:12;;;;;;;10.27;6.70;;;;;;;9.69;98.12;98894.41;5095172;28;20034;-71
2021/12/28 10:55:40;;;;;;;14.00;7.13;;;;;;;9.64;98.20;98862.63;5095178;28;20054;-71
2021/12/28 10:58:06;;;;;;;12.52;7.05;;;;;;;9.75;98.17;98877.25;5094956;28;20028;-70
2021/12/28 11:00:36;;;;;;;11.93;7.30;;;;;;;9.79;98.07;98875.03;5076852;28;20072;-71
2021/12/28 11:03:17;;;;;;;10.63;7.03;;;;;;;9.70;98.23;98874.59;5076369;28;20059;-70
2021/12/28 11:05:45;;;;;;;9.38;6.78;;;;;;;9.60;98.34;98870.00;5094785;28;20531;-71
2021/12/28 11:08:11;;;;;;;14.13;7.45;;;;;;;9.68;98.45;98859.34;5093830;28;20535;-70
2021/12/28 11:10:49;;;;;;;10.13;6.78;;;;;;;9.74;97.36;98867.97;5074919;28;20019;-71
2021/12/28 11:13:20;;;;;;;9.30;6.45;;;;;;;9.76;97.64;98868.53;5092741;28;20031;-70
2021/12/28 11:15:46;;;;;;;9.63;6.20;;;;;;;9.81;96.45;98871.22;5093689;28;20012;-71
2021/12/28 11:18:30;;;;;;;9.95;6.13;;;;;;;9.80;96.82;98861.88;5094515;28;20039;-71
2021/12/28 11:20:58;;;;;;;9.10;5.75;;;;;;;9.83;96.14;98855.50;5094695;28;20039;-71
2021/12/28 11:23:26;;;;;;;7.82;5.30;;;;;;;9.81;95.90;98857.50;5094672;28;20476;-70
2021/12/28 11:26:07;;;;;;;7.65;5.15;;;;;;;9.86;95.64;98852.44;5093637;28;20359;-71
2021/12/28 11:28:33;;;;;;;8.18;5.20;;;;;;;9.87;95.71;98854.81;5092497;28;20028;-70
2021/12/28 11:31:04;;;;;;;8.90;5.13;;;;;;;9.89;95.54;98850.19;5094280;28;20028;-70
2021/12/28 11:33:47;;;;;;;8.75;4.65;;;;;;;9.98;95.30;98842.09;5093353;28;20032;-71
2021/12/28 11:36:13;;;;;;;5.78;4.10;;;;;;;9.71;94.41;98807.28;5074266;28;20024;-69